mercredi 23 avril 2014

ALERTE SPOTTING 23/04/14

744 CN-RGA RAM
   AT640/AT641   14h40/16h40

73H TC-AVP Pegasus (sticker Asia)
   PC873/PC874  17h40/18h30

320 F-GHQE Air Corsica (blanc avec titre)
   XK4501/XK4500   07h35/08h30

772 F-GSPT Air France
  arv AF374Y 10h40
32A EC-LVP Vueling (couleur Linking Europe)
          dpt VY1983 06h50
      VY1984/VY1985   12h05/12h45
   VY1986/VY2857   17h25/18h10
 arv  VY2856 21h25

 Manque les prévisions de : certains AB / AH / AZ / BA / BE / IB / KM / TP / TU
*** Heures en Local Time **
Prévisions matinales soumises à modifications de dernières minute.
 Voir le log du mois pour la version 'définitive' de la journée: 
 http://www.airkalo.com/ORLYAVIATION/Logdumois.html

le TAF de la journée:

METAR: LFPO 230230Z 00000KT 9000 R08/1300D MIFG NSC 09/09 Q1017
NOSIG=
TAF LONG: AMD LFPO 230108Z 2301/2406 22005KT 9999 SCT040 TEMPO 2301/2307
VRB02KT 4000 BR PROB40 TEMPO 2301/2306 0500 FG BKN003 TEMPO 2318/2321
-SHRA BKN030 TEMPO 2323/2406 4000 -RA SCT012 BKN025=